Fort Morgan, CO (80701)

3:29 PM MDT on July 24, 2014 (GMT -0600)
Fort Morgan (KCOFORTM2) Elev 4327 ft | 40.24 °N, 103.79 °W | Change Station

Current weather conditions updated 3 seconds ago

Clear
Clear
96.4 °F
Feels Like 91 °F
N
3.1
Wind Variable Wind from SW
Gusts 6.0 mph

Today is forecast to be Much Warmer than yesterday.

Today
High -- | Low -- °F
--% Chance of Precip.
Yesterday
High -- | Low -- °F
Precip. -- in
5:45 AM 8:17 PM
Waning Crescent, 4% visible
Pressure 29.97 in
Visibility 10.0 miles
Clouds Clear
Heat Index 91 °F
Dew Point 31 °F
Humidity 10%
Rainfall 0.00 in
Snow Depth Not available.
UV 0.0 out of 12
Pollen 7.40 out of 12
Air Quality Not available.
Flu Activity Not available.
METAR KFMM 242115Z AUTO 24007KT 10SM CLR 36/04 A2997 RMK AO2 T03640044 PWINO

More Conditions Fewer Conditions

Pressure 29.97 in
Visibility 10.0 miles
Clouds Clear
Heat Index 91 °F
Dew Point 31 °F
Humidity 10%
Rainfall 0.00 in
Snow Depth Not available.
UV 0.0 out of 12
Pollen 7.40 out of 12
Air Quality Not available.
Flu Activity Not available.
METAR KFMM 242115Z AUTO 24007KT 10SM CLR 36/04 A2997 RMK AO2 T03640044 PWINO

More Conditions Fewer Conditions

10-Day Weather Forecast

Almanac

Astronomy

Jul. 24, 2014 Rise Set
Actual Time 5:45 AM MDT 8:17 PM MDT
Civil Twilight 5:14 AM MDT 8:48 PM MDT
Nautical Twilight 4:35 AM MDT 9:27 PM MDT
Astronomical Twilight 3:52 AM MDT 10:10 PM MDT
Moon 3:55 AM MDT 6:33 PM MDT
Length of Visible Light 15h 33m
Length of Day
14h 31m
Tomorrow will be 1m 45s shorter.
Waning Crescent, 4% of the Moon is Illuminated
Today
Waning Crescent
Jul 26
New
Aug 3
First Quarter
Aug 10
Full
Aug 17
Last Quarter

Today's Extremes

State Highs State Lows

Community

WunderPhotos

Upload Photos

1,737,133 photos uploaded!

WunderBlogs® & News

Nearby

Snow Depth

Station Depth Elevation
Lake Irene 2 in 10700 ft
Never Summer 0 in 10280 ft
Grizzly Peak 5 in 11100 ft
Rawah 21 in 9020 ft
Vail Mountain 1 in 10300 ft

Earthquake Activity

City Distance Mag. Time & Date
No recent earthquake activity has been reported nearby.
Minimum magnitude displayed is 2.5.

Coastal Water Temperatures

Place Temperature
No Stations Reporting

Nearby Weather Stations

Station Location Temp. Heat Index Dew Point Humidity Wind Precip. Elev Updated Type
Fort Morgan, Fort Morgan, CO 96.4 °F 91 °F 31 °F 10% SW  at  3.1 mph 0.00 in / hr 4327 ft 3:29 PM MDT Rapid Fire

Show More Stations Show Fewer Stations